Time;durP1;ratioP1;P1;durP2;ratioP2;P2;SDS_P1;SDS_P2;PMS_P1;PMS_P2;Temp;Humidity;BMP_temperature;BMP_pressure;BME280_temperature;BME280_humidity;BME280_pressure;Samples;Min_cycle;Max_cycle;Signal;HPM_P1;HPM_P2
2022/12/24 00:00:12;;;;;;;;;;;7.00;99.90;;;;;;5067304;28;1306;-65
2022/12/24 00:02:38;;;;;;;;;;;7.00;99.90;;;;;;5078419;28;1225;-65
2022/12/24 00:05:04;;;;;;;;;;;7.00;99.90;;;;;;5081015;28;1179;-65
2022/12/24 00:07:30;;;;;;;;;;;7.00;99.90;;;;;;5080912;28;1273;-65
2022/12/24 00:09:55;;;;;;;;;;;7.00;99.90;;;;;;5080834;28;1300;-65
2022/12/24 00:12:21;;;;;;;;;;;7.00;99.90;;;;;;5084090;28;1266;-65
2022/12/24 00:14:47;;;;;;;;;;;7.00;99.90;;;;;;5079402;28;1910;-65
2022/12/24 00:17:12;;;;;;;;;;;7.00;99.90;;;;;;5068222;28;1251;-65
2022/12/24 00:19:38;;;;;;;;;;;7.00;99.90;;;;;;5083040;28;1338;-65
2022/12/24 00:22:04;;;;;;;;;;;7.00;99.90;;;;;;5082397;28;1218;-65
2022/12/24 00:24:29;;;;;;;;;;;7.00;99.90;;;;;;5081309;28;1227;-65
2022/12/24 00:26:55;;;;;;;;;;;7.00;99.90;;;;;;5088593;28;1293;-65
2022/12/24 00:29:21;;;;;;;;;;;7.00;99.90;;;;;;5089508;28;1092;-65
2022/12/24 00:31:46;;;;;;;;;;;7.00;99.90;;;;;;5089434;28;1070;-65
2022/12/24 00:34:12;;;;;;;;;;;7.10;99.90;;;;;;5088866;28;1918;-65
2022/12/24 00:36:37;;;;;;;;;;;6.90;99.90;;;;;;5089013;28;1178;-65
2022/12/24 00:39:03;;;;;;;;;;;6.90;99.90;;;;;;5089338;28;1092;-65
2022/12/24 00:41:29;;;;;;;;;;;6.90;99.90;;;;;;5070365;28;1108;-65
2022/12/24 00:44:04;;;;;;;;;;;6.80;99.90;;;;;;5089323;28;1019;-65
2022/12/24 00:46:31;;;;;;;;;;;6.90;99.90;;;;;;5077021;28;1140;-65
2022/12/24 00:48:56;;;;;;;;;;;6.80;99.90;;;;;;5088325;28;1166;-65
2022/12/24 00:51:22;;;;;;;;;;;6.90;99.90;;;;;;5089210;28;1318;-65
2022/12/24 00:53:48;;;;;;;;;;;6.90;99.90;;;;;;5070821;28;1236;-65
2022/12/24 00:56:14;;;;;;;;;;;6.90;99.90;;;;;;5088683;28;1976;-65
2022/12/24 00:58:39;;;;;;;;;;;6.80;99.90;;;;;;5088951;28;1123;-65
2022/12/24 01:01:05;;;;;;;;;;;6.80;99.90;;;;;;5089549;28;1096;-65
2022/12/24 01:03:37;;;;;;;;;;;6.90;99.90;;;;;;5088633;28;1285;-65
2022/12/24 01:06:04;;;;;;;;;;;6.80;99.90;;;;;;5088865;28;1087;-65
2022/12/24 01:08:30;;;;;;;;;;;6.90;99.90;;;;;;5088834;28;1074;-65
2022/12/24 01:10:56;;;;;;;;;;;6.80;99.90;;;;;;5089522;28;1131;-65
2022/12/24 01:13:22;;;;;;;;;;;6.80;99.90;;;;;;5093249;28;1084;-65
2022/12/24 01:15:48;;;;;;;;;;;6.80;99.90;;;;;;5093067;28;1915;-65
2022/12/24 01:18:13;;;;;;;;;;;6.80;99.90;;;;;;5092675;28;1120;-65
2022/12/24 01:20:39;;;;;;;;;;;6.80;99.90;;;;;;5092955;28;1449;-65
2022/12/24 01:23:05;;;;;;;;;;;6.80;99.90;;;;;;5092364;28;1115;-65
2022/12/24 01:25:30;;;;;;;;;;;6.80;99.90;;;;;;5092878;28;1118;-65
2022/12/24 01:27:56;;;;;;;;;;;6.80;99.90;;;;;;5092787;28;1144;-65
2022/12/24 01:30:22;;;;;;;;;;;6.90;99.90;;;;;;5092524;28;1099;-65
2022/12/24 01:32:47;;;;;;;;;;;6.90;99.90;;;;;;5092412;28;969;-65
2022/12/24 01:35:13;;;;;;;;;;;6.90;99.90;;;;;;5092528;28;1914;-65
2022/12/24 01:37:40;;;;;;;;;;;6.90;99.90;;;;;;5092213;28;1183;-65
2022/12/24 01:45:36;;;;;;;;;;;6.90;99.90;;;;;;5086093;28;1183;-65
2022/12/24 01:48:02;;;;;;;;;;;7.00;99.90;;;;;;5092651;28;1107;-65
2022/12/24 01:50:27;;;;;;;;;;;7.00;99.90;;;;;;5092162;28;1147;-65
2022/12/24 01:52:53;;;;;;;;;;;7.00;99.90;;;;;;5091534;28;1620;-65
2022/12/24 01:55:19;;;;;;;;;;;7.00;99.90;;;;;;5092561;28;1922;-65
2022/12/24 01:57:47;;;;;;;;;;;7.00;99.90;;;;;;5092170;28;1166;-65
2022/12/24 02:00:13;;;;;;;;;;;7.00;99.90;;;;;;5091741;28;1096;-65
2022/12/24 02:02:40;;;;;;;;;;;7.00;99.90;;;;;;5092502;28;1198;-65
2022/12/24 02:05:08;;;;;;;;;;;7.00;99.90;;;;;;5071072;28;1101;-65
2022/12/24 02:07:35;;;;;;;;;;;7.10;99.90;;;;;;5081452;28;1211;-64
2022/12/24 02:10:00;;;;;;;;;;;7.10;99.90;;;;;;5091981;28;1200;-65
2022/12/24 02:12:27;;;;;;;;;;;7.10;99.90;;;;;;5091185;28;1168;-65
2022/12/24 02:14:53;;;;;;;;;;;7.10;99.90;;;;;;5092128;28;1982;-64
2022/12/24 02:17:23;;;;;;;;;;;7.10;99.90;;;;;;5091662;28;1387;-65
2022/12/24 02:20:09;;;;;;;;;;;7.10;99.90;;;;;;5090620;28;1401;-65
2022/12/24 02:22:53;;;;;;;;;;;7.10;99.90;;;;;;5082551;28;1269;-65
2022/12/24 02:25:19;;;;;;;;;;;7.10;99.90;;;;;;5082591;28;1274;-65
2022/12/24 02:27:48;;;;;;;;;;;7.10;99.90;;;;;;5086817;28;1080;-64
2022/12/24 02:30:18;;;;;;;;;;;7.20;99.90;;;;;;5072649;28;980;-64
2022/12/24 02:32:52;;;;;;;;;;;7.20;99.90;;;;;;5090872;28;1373;-64
2022/12/24 02:35:30;;;;;;;;;;;7.10;99.90;;;;;;5090619;28;1902;-65
2022/12/24 02:38:00;;;;;;;;;;;7.20;99.90;;;;;;5091582;28;1119;-64
2022/12/24 02:40:28;;;;;;;;;;;7.10;99.90;;;;;;5091151;28;1174;-64
2022/12/24 02:42:55;;;;;;;;;;;7.10;99.90;;;;;;5091318;28;1169;-65
2022/12/24 02:45:26;;;;;;;;;;;7.20;99.90;;;;;;5086948;28;1181;-65
2022/12/24 02:47:53;;;;;;;;;;;7.20;99.90;;;;;;5090741;28;1096;-65
2022/12/24 02:50:19;;;;;;;;;;;7.20;99.90;;;;;;5091004;28;1290;-64
2022/12/24 02:52:45;;;;;;;;;;;7.20;99.90;;;;;;5073074;28;1272;-64
2022/12/24 02:55:20;;;;;;;;;;;7.20;99.90;;;;;;5090743;28;1992;-64
2022/12/24 02:57:59;;;;;;;;;;;7.20;99.90;;;;;;5091417;28;1100;-64
2022/12/24 03:00:25;;;;;;;;;;;7.20;99.90;;;;;;5073402;28;1116;-64
2022/12/24 03:02:51;;;;;;;;;;;7.20;99.90;;;;;;5071825;28;1109;-65
2022/12/24 03:05:22;;;;;;;;;;;7.20;99.90;;;;;;5082717;28;1135;-65
2022/12/24 03:08:08;;;;;;;;;;;7.20;99.90;;;;;;5091248;28;1123;-64
2022/12/24 03:10:37;;;;;;;;;;;7.20;99.90;;;;;;5090148;28;1087;-64
2022/12/24 03:13:05;;;;;;;;;;;7.20;99.90;;;;;;5090939;28;1076;-65
2022/12/24 03:15:31;;;;;;;;;;;7.20;99.90;;;;;;5091162;28;1902;-65
2022/12/24 03:17:59;;;;;;;;;;;7.20;99.90;;;;;;5090777;28;1127;-64
2022/12/24 03:20:29;;;;;;;;;;;7.10;99.90;;;;;;5090428;28;1377;-64
2022/12/24 03:22:55;;;;;;;;;;;7.10;99.90;;;;;;5090134;28;1076;-64
2022/12/24 03:25:23;;;;;;;;;;;7.10;99.90;;;;;;5090778;28;1104;-64
2022/12/24 03:27:48;;;;;;;;;;;7.10;99.90;;;;;;5090289;28;1146;-64
2022/12/24 03:30:14;;;;;;;;;;;7.00;99.90;;;;;;5090011;28;1100;-64
2022/12/24 03:32:40;;;;;;;;;;;7.00;99.90;;;;;;5090804;28;1148;-64
2022/12/24 03:35:06;;;;;;;;;;;6.90;99.90;;;;;;5089357;28;1975;-64
2022/12/24 03:37:32;;;;;;;;;;;7.00;99.90;;;;;;5089735;28;1131;-64
2022/12/24 03:39:58;;;;;;;;;;;7.00;99.90;;;;;;5090719;28;1120;-64
2022/12/24 03:42:23;;;;;;;;;;;7.00;99.90;;;;;;5089920;28;1119;-64
2022/12/24 03:44:49;;;;;;;;;;;7.10;99.90;;;;;;5089748;28;1218;-64
2022/12/24 03:47:15;;;;;;;;;;;7.10;99.90;;;;;;5090045;28;1185;-64
2022/12/24 03:49:40;;;;;;;;;;;7.10;99.90;;;;;;5089920;28;1234;-64
2022/12/24 03:52:06;;;;;;;;;;;7.10;99.90;;;;;;5089647;28;1284;-64
2022/12/24 03:54:31;;;;;;;;;;;7.00;99.90;;;;;;5089816;28;1913;-64
2022/12/24 03:56:57;;;;;;;;;;;7.00;99.90;;;;;;5089952;28;1116;-64
2022/12/24 03:59:23;;;;;;;;;;;7.00;99.90;;;;;;5089709;28;1152;-64
2022/12/24 04:01:49;;;;;;;;;;;7.00;99.90;;;;;;5090276;28;1147;-64
2022/12/24 04:04:14;;;;;;;;;;;6.90;99.90;;;;;;5089236;28;1444;-64
2022/12/24 04:06:41;;;;;;;;;;;6.90;99.90;;;;;;5089551;28;1115;-64
2022/12/24 04:09:07;;;;;;;;;;;6.80;99.90;;;;;;5090137;28;1108;-64
2022/12/24 04:11:32;;;;;;;;;;;6.80;99.90;;;;;;5089416;28;1100;-64
2022/12/24 04:13:58;;;;;;;;;;;6.80;99.90;;;;;;5088881;28;1074;-64
2022/12/24 04:16:24;;;;;;;;;;;6.80;99.90;;;;;;5090023;28;1984;-64
2022/12/24 04:18:50;;;;;;;;;;;6.80;99.90;;;;;;5070972;28;1306;-64
2022/12/24 04:21:15;;;;;;;;;;;6.80;99.90;;;;;;5088958;28;1149;-64
2022/12/24 04:23:41;;;;;;;;;;;6.80;99.90;;;;;;5089870;28;1115;-64
2022/12/24 04:26:08;;;;;;;;;;;6.70;99.90;;;;;;5088863;28;1131;-64
2022/12/24 04:28:34;;;;;;;;;;;6.80;99.90;;;;;;5089871;28;1142;-64
2022/12/24 04:31:02;;;;;;;;;;;6.70;99.90;;;;;;5071215;28;1142;-64
2022/12/24 04:33:28;;;;;;;;;;;6.80;99.90;;;;;;5088770;28;1088;-64
2022/12/24 04:35:55;;;;;;;;;;;6.90;99.90;;;;;;5089594;28;1914;-64
2022/12/24 04:38:21;;;;;;;;;;;6.90;99.90;;;;;;5089620;28;1111;-64
2022/12/24 04:40:47;;;;;;;;;;;7.10;99.90;;;;;;5088007;28;1181;-64
2022/12/24 04:43:12;;;;;;;;;;;7.10;99.90;;;;;;5089422;28;1126;-64
2022/12/24 04:45:38;;;;;;;;;;;7.20;99.90;;;;;;5071113;28;1706;-64
2022/12/24 04:48:04;;;;;;;;;;;7.20;99.90;;;;;;5088000;28;1147;-64
2022/12/24 04:50:29;;;;;;;;;;;7.30;99.90;;;;;;5089333;28;1124;-64
2022/12/24 04:52:55;;;;;;;;;;;7.40;99.90;;;;;;5089453;28;1573;-64
2022/12/24 04:55:20;;;;;;;;;;;7.60;99.90;;;;;;5087972;28;1994;-64
2022/12/24 04:57:47;;;;;;;;;;;7.70;99.90;;;;;;5089190;28;1179;-64
2022/12/24 05:00:13;;;;;;;;;;;7.70;99.90;;;;;;5089486;28;1081;-64
2022/12/24 05:02:39;;;;;;;;;;;7.80;99.90;;;;;;5082237;28;1232;-64
2022/12/24 05:05:04;;;;;;;;;;;7.80;99.90;;;;;;5088917;28;1087;-64
2022/12/24 05:07:30;;;;;;;;;;;7.90;99.90;;;;;;5070827;28;1186;-64
2022/12/24 05:09:56;;;;;;;;;;;7.90;99.90;;;;;;5087777;28;1128;-64
2022/12/24 05:12:22;;;;;;;;;;;7.90;99.90;;;;;;5089127;28;1135;-64
2022/12/24 05:14:47;;;;;;;;;;;7.90;99.90;;;;;;5088665;28;1975;-64
2022/12/24 05:17:13;;;;;;;;;;;7.90;99.90;;;;;;5087948;28;1188;-64
2022/12/24 05:19:39;;;;;;;;;;;7.90;99.90;;;;;;5070734;28;1323;-64
2022/12/24 05:27:33;;;;;;;;;;;8.00;99.90;;;;;;5088987;28;1099;-64
2022/12/24 05:29:59;;;;;;;;;;;8.10;99.90;;;;;;5088349;28;1091;-64
2022/12/24 05:32:24;;;;;;;;;;;8.10;99.90;;;;;;5088635;28;1119;-64
2022/12/24 05:34:50;;;;;;;;;;;8.20;99.90;;;;;;5088666;28;1906;-64
2022/12/24 05:37:16;;;;;;;;;;;8.20;99.90;;;;;;5088527;28;1088;-64
2022/12/24 05:39:41;;;;;;;;;;;8.20;99.90;;;;;;5088615;28;1182;-64
2022/12/24 05:42:07;;;;;;;;;;;8.10;99.90;;;;;;5070307;28;1826;-64
2022/12/24 05:44:32;;;;;;;;;;;8.10;99.90;;;;;;5087984;28;1138;-64
2022/12/24 05:46:58;;;;;;;;;;;7.90;99.90;;;;;;5088807;28;1132;-64
2022/12/24 05:49:24;;;;;;;;;;;7.80;99.90;;;;;;5088619;28;1115;-64
2022/12/24 05:51:49;;;;;;;;;;;7.60;99.90;;;;;;5079505;28;1323;-64
2022/12/24 05:54:15;;;;;;;;;;;7.60;99.90;;;;;;5086628;28;1273;-64
2022/12/24 05:56:40;;;;;;;;;;;7.60;99.90;;;;;;5088936;28;1969;-64
2022/12/24 05:59:06;;;;;;;;;;;7.40;99.90;;;;;;5090721;28;1221;-64
2022/12/24 06:01:32;;;;;;;;;;;7.40;99.90;;;;;;5088775;28;981;-64
2022/12/24 06:03:57;;;;;;;;;;;7.30;99.90;;;;;;5074094;28;1306;-64
2022/12/24 06:06:24;;;;;;;;;;;7.30;99.90;;;;;;5091541;28;1107;-64
2022/12/24 06:08:50;;;;;;;;;;;7.50;99.90;;;;;;5091826;28;1143;-64
2022/12/24 06:11:21;;;;;;;;;;;7.50;99.90;;;;;;5092457;28;1211;-64
2022/12/24 06:13:47;;;;;;;;;;;7.50;99.90;;;;;;5091938;28;1100;-64
2022/12/24 06:16:14;;;;;;;;;;;7.50;99.90;;;;;;5091598;28;1906;-64
2022/12/24 06:18:40;;;;;;;;;;;7.50;99.90;;;;;;5091127;28;1319;-64
2022/12/24 06:21:06;;;;;;;;;;;7.60;99.90;;;;;;5092176;28;1159;-64
2022/12/24 06:23:33;;;;;;;;;;;7.60;99.90;;;;;;5091694;28;1151;-64
2022/12/24 06:26:00;;;;;;;;;;;7.70;99.90;;;;;;5091224;28;1139;-64
2022/12/24 06:28:26;;;;;;;;;;;7.70;99.90;;;;;;5091848;28;1175;-64
2022/12/24 06:30:52;;;;;;;;;;;7.80;99.90;;;;;;5091695;28;1072;-64
2022/12/24 06:33:17;;;;;;;;;;;7.70;99.90;;;;;;5091209;28;976;-64
2022/12/24 06:35:43;;;;;;;;;;;7.70;99.90;;;;;;5073221;28;1942;-64
2022/12/24 06:38:09;;;;;;;;;;;7.70;99.90;;;;;;5073133;28;1112;-64
2022/12/24 06:40:37;;;;;;;;;;;7.70;99.90;;;;;;5091120;28;1072;-64
2022/12/24 06:43:02;;;;;;;;;;;7.60;99.90;;;;;;5090326;28;1171;-64
2022/12/24 06:45:28;;;;;;;;;;;7.70;99.90;;;;;;5083989;28;1136;-64
2022/12/24 06:47:53;;;;;;;;;;;7.70;99.90;;;;;;5091031;28;1151;-64
2022/12/24 06:50:19;;;;;;;;;;;7.60;99.90;;;;;;5091725;28;1289;-64
2022/12/24 06:52:45;;;;;;;;;;;7.60;99.90;;;;;;5091097;28;1320;-64
2022/12/24 06:55:10;;;;;;;;;;;7.70;99.90;;;;;;5090647;28;2016;-64
2022/12/24 06:57:36;;;;;;;;;;;7.70;99.90;;;;;;5091266;28;1120;-64
2022/12/24 07:00:02;;;;;;;;;;;7.70;99.90;;;;;;5071646;28;1199;-64
2022/12/24 07:02:28;;;;;;;;;;;7.70;99.90;;;;;;5090168;28;1191;-64
2022/12/24 07:04:53;;;;;;;;;;;7.80;99.90;;;;;;5091366;28;1479;-64
2022/12/24 07:07:19;;;;;;;;;;;7.70;99.90;;;;;;5091334;28;1175;-64
2022/12/24 07:09:45;;;;;;;;;;;7.80;99.90;;;;;;5089502;28;1143;-64
2022/12/24 07:12:10;;;;;;;;;;;7.80;99.90;;;;;;5091320;28;1194;-64
2022/12/24 07:14:36;;;;;;;;;;;7.80;99.90;;;;;;5091102;28;1910;-64
2022/12/24 07:17:01;;;;;;;;;;;7.90;99.90;;;;;;5090022;28;1017;-64
2022/12/24 07:19:27;;;;;;;;;;;7.90;99.90;;;;;;5090446;28;1263;-64
2022/12/24 07:21:53;;;;;;;;;;;7.90;99.90;;;;;;5090271;28;1101;-65
2022/12/24 07:24:19;;;;;;;;;;;8.00;99.90;;;;;;5090811;28;1159;-64
2022/12/24 07:26:44;;;;;;;;;;;8.00;99.90;;;;;;5090508;28;1048;-64
2022/12/24 07:29:10;;;;;;;;;;;8.00;99.90;;;;;;5089956;28;1131;-64
2022/12/24 07:31:36;;;;;;;;;;;8.00;99.90;;;;;;5090253;28;1175;-64
2022/12/24 07:34:01;;;;;;;;;;;8.00;99.90;;;;;;5072553;28;1163;-64
2022/12/24 07:36:27;;;;;;;;;;;8.10;99.90;;;;;;5089670;28;1971;-64
2022/12/24 07:38:53;;;;;;;;;;;8.00;99.90;;;;;;5090554;28;1075;-64
2022/12/24 07:41:19;;;;;;;;;;;8.00;99.90;;;;;;5090514;28;1228;-65
2022/12/24 07:43:44;;;;;;;;;;;7.90;99.90;;;;;;5082830;28;1120;-64
2022/12/24 07:46:10;;;;;;;;;;;7.90;99.90;;;;;;5088300;28;1179;-64
2022/12/24 07:48:36;;;;;;;;;;;7.90;99.90;;;;;;5090628;28;1104;-65
2022/12/24 07:51:02;;;;;;;;;;;7.90;99.90;;;;;;5089765;28;1338;-65
2022/12/24 07:53:28;;;;;;;;;;;7.90;99.90;;;;;;5089704;28;1301;-64
2022/12/24 07:55:53;;;;;;;;;;;8.00;99.90;;;;;;5090256;28;1983;-65
2022/12/24 07:58:20;;;;;;;;;;;8.00;99.90;;;;;;5078197;28;1144;-65
2022/12/24 08:00:45;;;;;;;;;;;8.00;99.90;;;;;;5088387;28;1067;-65
2022/12/24 08:03:15;;;;;;;;;;;7.90;99.90;;;;;;5084328;28;1206;-65
2022/12/24 08:05:41;;;;;;;;;;;7.90;99.90;;;;;;5088839;28;1211;-65
2022/12/24 08:08:07;;;;;;;;;;;7.90;99.90;;;;;;5071824;28;1159;-65
2022/12/24 08:10:32;;;;;;;;;;;8.00;99.90;;;;;;5090142;28;1143;-65
2022/12/24 08:12:58;;;;;;;;;;;7.90;99.90;;;;;;5089104;28;1122;-65
2022/12/24 08:15:24;;;;;;;;;;;8.00;99.90;;;;;;5071274;28;1970;-65
2022/12/24 08:17:49;;;;;;;;;;;8.00;99.90;;;;;;5089905;28;1111;-65
2022/12/24 08:20:16;;;;;;;;;;;8.00;99.90;;;;;;5069841;28;1351;-65
2022/12/24 08:22:42;;;;;;;;;;;8.00;99.90;;;;;;5070403;28;1191;-65
2022/12/24 08:25:09;;;;;;;;;;;7.90;99.90;;;;;;5054284;28;1124;-65
2022/12/24 08:27:34;;;;;;;;;;;7.90;99.90;;;;;;5089777;28;1103;-65
2022/12/24 08:30:00;;;;;;;;;;;7.90;99.90;;;;;;5089065;28;976;-65
2022/12/24 08:32:26;;;;;;;;;;;7.90;99.90;;;;;;5089120;28;1120;-65
2022/12/24 08:34:51;;;;;;;;;;;7.90;99.90;;;;;;5089659;28;1963;-65
2022/12/24 08:37:17;;;;;;;;;;;7.90;99.90;;;;;;5089306;28;1087;-65
2022/12/24 08:39:43;;;;;;;;;;;8.00;99.90;;;;;;5088604;28;964;-65
2022/12/24 08:42:08;;;;;;;;;;;8.00;99.90;;;;;;5089622;28;1096;-65
2022/12/24 08:44:34;;;;;;;;;;;7.90;99.90;;;;;;5088931;28;1178;-65
2022/12/24 08:47:00;;;;;;;;;;;7.90;99.90;;;;;;5085577;28;3198;-65
2022/12/24 08:49:25;;;;;;;;;;;7.90;99.90;;;;;;5087215;28;3234;-65
2022/12/24 08:51:51;;;;;;;;;;;7.80;99.90;;;;;;5070394;28;1345;-65
2022/12/24 08:54:17;;;;;;;;;;;7.80;99.90;;;;;;5084845;28;2981;-65
2022/12/24 08:56:43;;;;;;;;;;;7.90;99.90;;;;;;5085682;28;1967;-65
2022/12/24 08:59:10;;;;;;;;;;;7.90;99.90;;;;;;5087221;28;1081;-65
2022/12/24 09:01:35;;;;;;;;;;;7.90;99.90;;;;;;5085660;28;1349;-65
2022/12/24 09:04:01;;;;;;;;;;;8.10;99.90;;;;;;5088761;28;1166;-65
2022/12/24 09:06:27;;;;;;;;;;;8.20;99.90;;;;;;5088917;28;3105;-65
2022/12/24 09:08:53;;;;;;;;;;;8.30;99.90;;;;;;5087452;28;1135;-65
2022/12/24 09:11:19;;;;;;;;;;;8.40;99.90;;;;;;5082609;28;1171;-65
2022/12/24 09:13:45;;;;;;;;;;;8.40;99.90;;;;;;5086780;28;1100;-65
2022/12/24 09:16:11;;;;;;;;;;;8.50;99.90;;;;;;5088477;28;1915;-65
2022/12/24 09:18:37;;;;;;;;;;;8.60;99.90;;;;;;5088938;28;1334;-65
2022/12/24 09:21:04;;;;;;;;;;;8.50;99.90;;;;;;5083713;28;1294;-66
2022/12/24 09:23:30;;;;;;;;;;;8.50;99.90;;;;;;5088117;28;1052;-66
2022/12/24 09:25:55;;;;;;;;;;;8.50;99.90;;;;;;5089111;28;942;-65
2022/12/24 09:28:22;;;;;;;;;;;8.50;99.90;;;;;;5087972;28;1142;-65
2022/12/24 09:30:57;;;;;;;;;;;8.50;99.90;;;;;;5070761;28;1075;-65
2022/12/24 09:33:23;;;;;;;;;;;8.50;99.90;;;;;;5092615;28;1179;-65
2022/12/24 09:35:50;;;;;;;;;;;8.50;99.90;;;;;;5092024;28;1910;-65
2022/12/24 09:38:15;;;;;;;;;;;8.60;99.90;;;;;;5079292;28;1079;-65
2022/12/24 09:40:41;;;;;;;;;;;8.60;99.90;;;;;;5092824;28;1162;-65
2022/12/24 09:43:13;;;;;;;;;;;8.70;99.90;;;;;;5076468;28;1284;-65
2022/12/24 09:45:40;;;;;;;;;;;8.80;99.90;;;;;;5084102;28;1266;-65
2022/12/24 09:48:10;;;;;;;;;;;8.90;99.90;;;;;;5088076;28;1191;-65
2022/12/24 09:50:43;;;;;;;;;;;8.90;99.90;;;;;;5083386;28;1126;-65
2022/12/24 09:53:14;;;;;;;;;;;9.10;99.90;;;;;;5085120;28;1585;-65
2022/12/24 09:55:46;;;;;;;;;;;9.30;99.90;;;;;;5071803;28;1983;-65
2022/12/24 09:58:21;;;;;;;;;;;9.70;99.90;;;;;;5082441;28;1083;-65
2022/12/24 10:00:47;;;;;;;;;;;9.90;99.90;;;;;;5083443;28;1127;-65
2022/12/24 10:03:14;;;;;;;;;;;9.60;99.90;;;;;;5085775;28;1218;-65
2022/12/24 10:05:43;;;;;;;;;;;9.60;99.90;;;;;;5082924;28;1202;-65
2022/12/24 10:08:15;;;;;;;;;;;9.50;99.90;;;;;;5085366;28;1222;-65
2022/12/24 10:10:45;;;;;;;;;;;9.70;99.90;;;;;;5081267;28;1200;-65
2022/12/24 10:13:17;;;;;;;;;;;9.60;99.90;;;;;;5083095;28;1278;-65
2022/12/24 10:15:52;;;;;;;;;;;9.40;99.90;;;;;;5083219;28;1913;-65
2022/12/24 10:18:25;;;;;;;;;;;9.20;99.90;;;;;;5083155;28;1208;-65
2022/12/24 10:20:54;;;;;;;;;;;9.10;99.90;;;;;;5085630;28;1611;-65
2022/12/24 10:23:33;;;;;;;;;;;9.10;99.90;;;;;;5082729;28;1131;-65
2022/12/24 10:25:59;;;;;;;;;;;9.10;99.90;;;;;;5060832;28;1213;-65
2022/12/24 10:28:32;;;;;;;;;;;9.10;99.90;;;;;;5082262;28;1274;-65
2022/12/24 10:31:00;;;;;;;;;;;9.10;99.90;;;;;;5088784;28;1231;-65
2022/12/24 10:33:34;;;;;;;;;;;9.00;99.90;;;;;;5087855;28;1098;-65
2022/12/24 10:35:59;;;;;;;;;;;9.10;99.90;;;;;;5082757;28;1906;-65
2022/12/24 10:38:25;;;;;;;;;;;9.40;99.90;;;;;;5071297;28;1270;-65
2022/12/24 10:40:53;;;;;;;;;;;10.00;99.90;;;;;;5087627;28;1321;-65
2022/12/24 10:43:20;;;;;;;;;;;10.10;99.90;;;;;;5090310;28;1182;-65
2022/12/24 10:45:47;;;;;;;;;;;10.00;99.90;;;;;;5091039;28;1199;-65
2022/12/24 10:48:18;;;;;;;;;;;10.10;99.90;;;;;;5085569;28;1261;-65
2022/12/24 10:50:51;;;;;;;;;;;10.10;99.90;;;;;;5086827;28;1080;-65
2022/12/24 10:53:18;;;;;;;;;;;10.00;99.90;;;;;;5082149;28;1081;-65
2022/12/24 10:55:46;;;;;;;;;;;9.90;99.90;;;;;;5072907;28;1958;-65
2022/12/24 10:58:14;;;;;;;;;;;9.70;99.90;;;;;;5091393;28;1127;-65
2022/12/24 11:00:40;;;;;;;;;;;9.70;99.90;;;;;;5081977;28;1112;-65
2022/12/24 11:03:06;;;;;;;;;;;9.70;99.90;;;;;;5083107;28;1257;-65
2022/12/24 11:05:33;;;;;;;;;;;9.80;99.90;;;;;;5089243;28;1084;-65
2022/12/24 11:08:00;;;;;;;;;;;10.00;99.90;;;;;;5090609;28;1104;-65
2022/12/24 11:10:26;;;;;;;;;;;10.00;99.90;;;;;;5091007;28;1218;-65
2022/12/24 11:12:52;;;;;;;;;;;10.00;99.90;;;;;;5085461;28;1079;-65
2022/12/24 11:15:21;;;;;;;;;;;10.10;99.90;;;;;;5074519;28;1909;-65
2022/12/24 11:17:55;;;;;;;;;;;10.00;99.90;;;;;;5087049;28;1084;-65
2022/12/24 11:20:23;;;;;;;;;;;10.00;99.90;;;;;;5090966;28;1334;-65
2022/12/24 11:22:49;;;;;;;;;;;10.20;99.90;;;;;;5100067;28;1107;-65
2022/12/24 11:25:21;;;;;;;;;;;10.30;99.90;;;;;;5090267;28;1126;-65
2022/12/24 11:27:49;;;;;;;;;;;10.10;99.90;;;;;;5084961;28;1173;-65
2022/12/24 11:30:15;;;;;;;;;;;9.90;99.90;;;;;;5090298;28;1084;-65
2022/12/24 11:32:42;;;;;;;;;;;9.90;99.90;;;;;;5088769;28;1091;-65
2022/12/24 11:35:13;;;;;;;;;;;9.80;99.90;;;;;;5078193;28;1949;-65
2022/12/24 11:37:38;;;;;;;;;;;9.60;99.90;;;;;;5079432;28;969;-65
2022/12/24 11:40:04;;;;;;;;;;;9.60;99.90;;;;;;5079380;28;953;-65
2022/12/24 11:42:32;;;;;;;;;;;9.50;99.90;;;;;;5079961;28;1088;-65
2022/12/24 11:44:59;;;;;;;;;;;9.40;99.90;;;;;;5079549;28;1289;-65
2022/12/24 11:47:32;;;;;;;;;;;9.40;99.90;;;;;;5079295;28;1076;-65
2022/12/24 11:50:17;;;;;;;;;;;9.40;99.90;;;;;;5079251;28;1023;-65
2022/12/24 11:52:45;;;;;;;;;;;9.40;99.90;;;;;;5079435;28;3174;-65
2022/12/24 11:55:16;;;;;;;;;;;9.40;99.90;;;;;;5078563;28;3314;-65
2022/12/24 11:57:48;;;;;;;;;;;9.40;99.90;;;;;;5078097;28;1258;-65
2022/12/24 12:00:14;;;;;;;;;;;9.50;99.90;;;;;;5062100;28;3134;-65
2022/12/24 12:02:41;;;;;;;;;;;9.50;99.90;;;;;;5058903;28;1219;-65
2022/12/24 12:05:11;;;;;;;;;;;9.50;99.90;;;;;;5081892;28;1082;-65
2022/12/24 12:07:37;;;;;;;;;;;9.50;99.90;;;;;;5079187;28;1031;-65
2022/12/24 12:10:06;;;;;;;;;;;9.50;99.90;;;;;;5078111;28;982;-65
2022/12/24 12:12:35;;;;;;;;;;;9.40;99.90;;;;;;5078159;28;1045;-65
2022/12/24 12:15:04;;;;;;;;;;;9.50;99.90;;;;;;5078710;28;1910;-65
2022/12/24 12:17:30;;;;;;;;;;;9.50;99.90;;;;;;5078457;28;1255;-65
2022/12/24 12:20:11;;;;;;;;;;;9.50;99.90;;;;;;5079377;28;1152;-65
2022/12/24 12:22:41;;;;;;;;;;;9.50;99.90;;;;;;5080813;28;1069;-65
2022/12/24 12:25:15;;;;;;;;;;;9.50;99.90;;;;;;5079720;28;1158;-65
2022/12/24 12:27:43;;;;;;;;;;;9.50;99.90;;;;;;5062092;28;1065;-65
2022/12/24 12:30:14;;;;;;;;;;;9.50;99.90;;;;;;5080465;28;1100;-65
2022/12/24 12:32:43;;;;;;;;;;;9.40;99.90;;;;;;5081539;28;1050;-65
2022/12/24 12:35:27;;;;;;;;;;;9.30;99.90;;;;;;5082185;28;1985;-65
2022/12/24 12:37:55;;;;;;;;;;;9.30;99.90;;;;;;5080618;28;1228;-65
2022/12/24 12:40:23;;;;;;;;;;;9.40;99.90;;;;;;5078820;28;1108;-65
2022/12/24 12:42:57;;;;;;;;;;;9.30;99.90;;;;;;5079437;28;1234;-65
2022/12/24 12:45:28;;;;;;;;;;;9.30;99.90;;;;;;5079218;28;1076;-65
2022/12/24 12:48:00;;;;;;;;;;;9.40;99.90;;;;;;5078088;28;1107;-65
2022/12/24 12:50:29;;;;;;;;;;;9.40;99.90;;;;;;5078735;28;1063;-65
2022/12/24 12:53:03;;;;;;;;;;;9.50;99.90;;;;;;5078045;28;1327;-63
2022/12/24 12:55:28;;;;;;;;;;;9.40;99.90;;;;;;5077210;28;1906;-63
2022/12/24 12:57:58;;;;;;;;;;;9.40;99.90;;;;;;5078774;28;1037;-63
2022/12/24 13:00:24;;;;;;;;;;;9.50;99.90;;;;;;5077547;28;1014;-63
2022/12/24 13:02:57;;;;;;;;;;;9.50;99.90;;;;;;5077644;28;1259;-63
2022/12/24 13:05:29;;;;;;;;;;;9.40;99.90;;;;;;5078125;28;1217;-64
2022/12/24 13:07:57;;;;;;;;;;;9.40;99.90;;;;;;5077570;28;996;-63
2022/12/24 13:10:42;;;;;;;;;;;9.50;99.90;;;;;;5077907;28;973;-63
2022/12/24 13:13:15;;;;;;;;;;;9.50;99.90;;;;;;5077504;28;1145;-63
2022/12/24 13:15:53;;;;;;;;;;;9.60;99.90;;;;;;5081409;28;1901;-63
2022/12/24 13:18:24;;;;;;;;;;;9.60;99.90;;;;;;5078136;28;1088;-63
2022/12/24 13:20:51;;;;;;;;;;;9.60;99.90;;;;;;5077357;28;1488;-63
2022/12/24 13:23:18;;;;;;;;;;;9.60;99.90;;;;;;5059787;28;1056;-64
2022/12/24 13:25:46;;;;;;;;;;;9.60;99.90;;;;;;5077441;28;1022;-63
2022/12/24 13:28:19;;;;;;;;;;;9.70;99.90;;;;;;5078076;28;1072;-63
2022/12/24 13:30:45;;;;;;;;;;;9.70;99.90;;;;;;5077380;28;1161;-63
2022/12/24 13:33:12;;;;;;;;;;;9.60;99.90;;;;;;5077972;28;1051;-63
2022/12/24 13:35:56;;;;;;;;;;;9.50;99.90;;;;;;5077028;28;1902;-64
2022/12/24 13:38:25;;;;;;;;;;;9.50;99.90;;;;;;5077342;28;3423;-63
2022/12/24 13:40:51;;;;;;;;;;;9.60;99.90;;;;;;5077903;28;3137;-63
2022/12/24 13:43:17;;;;;;;;;;;9.70;99.90;;;;;;5076856;28;3101;-63
2022/12/24 13:45:45;;;;;;;;;;;9.60;99.90;;;;;;5077651;28;1012;-64
2022/12/24 13:48:11;;;;;;;;;;;9.70;99.90;;;;;;5077382;28;1418;-63
2022/12/24 13:50:40;;;;;;;;;;;9.60;99.90;;;;;;5077402;28;1026;-63
2022/12/24 13:53:17;;;;;;;;;;;9.60;99.90;;;;;;5068784;28;2054;-64
2022/12/24 13:55:49;;;;;;;;;;;9.50;99.90;;;;;;5058293;28;2764;-63
2022/12/24 13:58:17;;;;;;;;;;;9.40;99.90;;;;;;5058643;28;1672;-63
2022/12/24 14:00:50;;;;;;;;;;;9.40;99.90;;;;;;5077740;28;1005;-63
2022/12/24 14:03:25;;;;;;;;;;;9.30;99.90;;;;;;5075163;28;1143;-64
2022/12/24 14:05:55;;;;;;;;;;;9.20;99.90;;;;;;5076882;28;1241;-64
2022/12/24 14:08:22;;;;;;;;;;;9.20;99.90;;;;;;5077156;28;977;-63
2022/12/24 14:11:01;;;;;;;;;;;9.20;99.90;;;;;;5075944;28;1016;-63
2022/12/24 14:13:37;;;;;;;;;;;9.30;99.90;;;;;;5075791;28;1191;-64
2022/12/24 14:16:04;;;;;;;;;;;9.30;99.90;;;;;;5058615;28;1967;-63
2022/12/24 14:18:32;;;;;;;;;;;9.30;99.90;;;;;;5077758;28;1302;-63
2022/12/24 14:20:59;;;;;;;;;;;9.30;99.90;;;;;;5080045;28;1034;-63
2022/12/24 14:23:31;;;;;;;;;;;9.30;99.90;;;;;;5081014;28;1027;-63
2022/12/24 14:25:59;;;;;;;;;;;9.20;99.90;;;;;;5080165;28;969;-63
2022/12/24 14:28:29;;;;;;;;;;;9.10;99.90;;;;;;5079513;28;1458;-63
2022/12/24 14:30:58;;;;;;;;;;;9.00;99.90;;;;;;5080895;28;1634;-63
2022/12/24 14:33:31;;;;;;;;;;;9.10;99.90;;;;;;5080917;28;1503;-63
2022/12/24 14:35:58;;;;;;;;;;;9.10;99.90;;;;;;5082210;28;1910;-63
2022/12/24 14:38:24;;;;;;;;;;;9.10;99.90;;;;;;5080939;28;1053;-63
2022/12/24 14:40:56;;;;;;;;;;;9.20;99.90;;;;;;5081080;28;1137;-64
2022/12/24 14:43:26;;;;;;;;;;;9.30;99.90;;;;;;5080469;28;1025;-63
2022/12/24 14:45:53;;;;;;;;;;;9.30;99.90;;;;;;5080610;28;1098;-64
2022/12/24 14:48:27;;;;;;;;;;;9.20;99.90;;;;;;5080422;28;1488;-64
2022/12/24 14:50:53;;;;;;;;;;;9.20;99.90;;;;;;5045688;28;1335;-63
2022/12/24 14:53:22;;;;;;;;;;;9.20;99.90;;;;;;5078515;28;3237;-64
2022/12/24 14:55:48;;;;;;;;;;;9.30;99.90;;;;;;5079675;28;1906;-64